createdAt,value
2019-03-12T00:02:17.992Z,13.30
2019-03-12T00:04:50.381Z,13.10
2019-03-12T00:07:20.960Z,13.10
2019-03-12T00:09:53.801Z,13.10
2019-03-12T00:12:23.901Z,13.20
2019-03-12T00:14:56.322Z,13.20
2019-03-12T00:17:26.876Z,13.20
2019-03-12T00:19:57.446Z,13.20
2019-03-12T00:22:27.994Z,13.20
2019-03-12T00:24:58.691Z,13.20
2019-03-12T00:27:29.322Z,13.20
2019-03-12T00:29:59.984Z,13.20
2019-03-12T00:32:30.547Z,13.20
2019-03-12T00:35:01.077Z,13.20
2019-03-12T00:37:33.149Z,13.20
2019-03-12T00:40:03.756Z,13.20
2019-03-12T00:42:34.310Z,13.10
2019-03-12T00:45:05.055Z,13.20
2019-03-12T00:47:35.629Z,13.20
2019-03-12T00:50:07.233Z,13.20
2019-03-12T00:52:37.943Z,13.20
2019-03-12T00:55:09.166Z,13.20
2019-03-12T00:57:40.921Z,13.20
2019-03-12T01:00:14.628Z,13.20
2019-03-12T01:02:45.182Z,13.30
2019-03-12T01:05:15.950Z,13.30
2019-03-12T01:07:48.449Z,13.30
2019-03-12T01:10:18.989Z,13.30
2019-03-12T01:12:49.777Z,13.30
2019-03-12T01:15:20.356Z,13.30
2019-03-12T01:17:50.909Z,13.30
2019-03-12T01:20:21.436Z,13.30
2019-03-12T01:22:52.102Z,13.30
2019-03-12T01:25:22.703Z,13.30
2019-03-12T01:27:53.265Z,13.30
2019-03-12T01:30:24.837Z,13.30
2019-03-12T01:32:55.523Z,13.30
2019-03-12T01:35:26.178Z,13.30
2019-03-12T01:37:56.799Z,13.30
2019-03-12T01:40:30.634Z,13.30
2019-03-12T01:43:03.010Z,13.30
2019-03-12T01:45:35.121Z,13.30
2019-03-12T01:48:05.689Z,13.30
2019-03-12T01:50:38.438Z,13.30
2019-03-12T01:53:10.381Z,13.30
2019-03-12T01:55:40.929Z,13.30
2019-03-12T01:58:14.645Z,13.20
2019-03-12T02:00:45.397Z,13.20
2019-03-12T02:03:15.980Z,13.20
2019-03-12T02:05:48.088Z,13.20
2019-03-12T02:08:19.928Z,13.20
2019-03-12T02:10:50.483Z,13.20
2019-03-12T02:13:40.107Z,13.20
2019-03-12T02:16:10.723Z,13.20
2019-03-12T02:18:41.407Z,13.20
2019-03-12T02:21:11.963Z,13.20
2019-03-12T02:23:42.590Z,13.20
2019-03-12T02:26:13.180Z,13.20
2019-03-12T02:28:43.825Z,13.20
2019-03-12T02:31:14.518Z,13.20
2019-03-12T02:33:45.136Z,13.20
2019-03-12T02:36:15.764Z,13.20
2019-03-12T02:38:46.365Z,13.20
2019-03-12T02:41:17.020Z,13.20
2019-03-12T02:43:48.662Z,13.20
2019-03-12T02:46:19.382Z,13.20
2019-03-12T02:48:49.916Z,13.20
2019-03-12T02:51:20.509Z,13.20
2019-03-12T02:53:51.045Z,13.20
2019-03-12T02:56:21.621Z,13.20
2019-03-12T02:58:52.160Z,13.20
2019-03-12T03:01:22.744Z,13.20
2019-03-12T03:03:53.300Z,13.20
2019-03-12T03:06:32.203Z,13.20
2019-03-12T03:09:02.746Z,13.20
2019-03-12T03:11:34.525Z,13.20
2019-03-12T03:14:05.087Z,13.20
2019-03-12T03:16:35.876Z,13.20
2019-03-12T03:19:06.571Z,13.20
2019-03-12T03:21:37.170Z,13.20
2019-03-12T03:24:07.760Z,13.20
2019-03-12T03:26:38.429Z,13.20
2019-03-12T03:29:08.993Z,13.20
2019-03-12T03:31:39.696Z,13.20
2019-03-12T03:34:10.229Z,13.20
2019-03-12T03:36:40.804Z,13.20
2019-03-12T03:39:11.700Z,13.20
2019-03-12T03:41:43.740Z,13.20
2019-03-12T03:44:14.290Z,13.20
2019-03-12T03:46:45.881Z,13.20
2019-03-12T03:49:18.224Z,13.20
2019-03-12T03:51:48.856Z,13.20
2019-03-12T03:54:19.460Z,13.10
2019-03-12T03:56:50.062Z,13.10
2019-03-12T03:59:21.780Z,13.10
2019-03-12T04:01:52.314Z,13.10
2019-03-12T04:04:22.888Z,13.10
2019-03-12T04:06:53.472Z,13.10
2019-03-12T04:09:25.128Z,13.10
2019-03-12T04:11:55.668Z,13.00
2019-03-12T04:14:27.470Z,13.10
2019-03-12T04:16:58.121Z,13.00
2019-03-12T04:19:28.680Z,13.00
2019-03-12T04:21:59.316Z,13.00
2019-03-12T04:24:29.893Z,13.00
2019-03-12T04:27:00.475Z,13.00
2019-03-12T04:29:31.157Z,13.00
2019-03-12T04:32:01.754Z,13.00
2019-03-12T04:34:39.286Z,12.90
2019-03-12T04:37:09.906Z,12.90
2019-03-12T04:39:40.459Z,12.90
2019-03-12T04:42:11.041Z,12.90
2019-03-12T04:44:41.620Z,12.90
2019-03-12T04:47:13.973Z,12.90
2019-03-12T04:49:44.553Z,12.80
2019-03-12T04:52:15.098Z,12.80
2019-03-12T04:54:46.765Z,12.80
2019-03-12T04:57:19.142Z,12.80
2019-03-12T04:59:50.813Z,12.80
2019-03-12T05:02:23.022Z,12.80
2019-03-12T05:04:53.628Z,12.80
2019-03-12T05:07:24.174Z,12.70
2019-03-12T05:09:56.181Z,12.70
2019-03-12T05:12:26.764Z,12.70
2019-03-12T05:14:57.425Z,12.70
2019-03-12T05:17:31.128Z,12.70
2019-03-12T05:20:01.687Z,12.70
2019-03-12T05:22:34.113Z,12.70
2019-03-12T05:25:04.992Z,12.70
2019-03-12T05:27:37.043Z,12.70
2019-03-12T05:30:11.241Z,12.70
2019-03-12T05:32:41.821Z,12.70
2019-03-12T05:35:13.475Z,12.70
2019-03-12T05:37:44.173Z,12.70
2019-03-12T05:40:16.970Z,12.80
2019-03-12T05:42:51.876Z,12.80
2019-03-12T05:45:22.466Z,12.70
2019-03-12T05:47:53.015Z,12.70
2019-03-12T05:50:23.618Z,12.80
2019-03-12T05:53:11.403Z,12.80
2019-03-12T05:55:43.056Z,12.70
2019-03-12T05:58:14.685Z,12.80
2019-03-12T06:00:45.268Z,12.80
2019-03-12T06:03:15.861Z,12.80
2019-03-12T06:05:47.628Z,12.80
2019-03-12T06:08:18.208Z,12.80
2019-03-12T06:10:48.830Z,12.80
2019-03-12T06:13:19.435Z,12.80
2019-03-12T06:15:53.020Z,12.80
2019-03-12T06:18:23.868Z,12.80
2019-03-12T06:20:54.452Z,12.90
2019-03-12T06:23:26.042Z,12.90
2019-03-12T06:25:56.589Z,12.90
2019-03-12T06:28:31.082Z,12.90
2019-03-12T06:31:37.658Z,12.90
2019-03-12T06:34:18.100Z,12.80
2019-03-12T06:37:06.129Z,12.80
2019-03-12T06:39:46.163Z,12.90
2019-03-12T06:42:35.622Z,12.90
2019-03-12T06:45:13.727Z,12.90
2019-03-12T06:48:04.269Z,13.00
2019-03-12T06:50:48.967Z,13.00
2019-03-12T06:53:38.191Z,13.00
2019-03-12T06:56:30.770Z,13.00
2019-03-12T06:59:36.887Z,13.00
2019-03-12T07:02:20.433Z,13.00
2019-03-12T07:05:23.064Z,13.10
2019-03-12T07:08:09.352Z,13.10
2019-03-12T07:11:02.126Z,13.10
2019-03-12T07:13:41.130Z,13.20
2019-03-12T07:16:25.538Z,13.20
2019-03-12T07:19:06.884Z,13.30
2019-03-12T07:21:59.508Z,13.30
2019-03-12T07:24:51.902Z,13.40
2019-03-12T07:27:48.559Z,13.40
2019-03-12T07:30:50.148Z,13.40
2019-03-12T07:33:27.689Z,13.40
2019-03-12T07:36:27.593Z,13.40
2019-03-12T07:39:17.157Z,13.40
2019-03-12T07:41:59.889Z,13.40
2019-03-12T07:44:49.387Z,13.40
2019-03-12T07:47:41.814Z,13.50
2019-03-12T07:50:32.648Z,13.50
2019-03-12T07:53:29.000Z,13.50
2019-03-12T07:56:19.931Z,13.50
2019-03-12T07:59:27.750Z,13.60
2019-03-12T08:02:14.638Z,13.50
2019-03-12T08:05:02.928Z,13.50
2019-03-12T08:07:43.703Z,13.50
2019-03-12T08:10:22.383Z,13.50
2019-03-12T08:13:30.144Z,13.60
2019-03-12T08:16:21.792Z,13.50
2019-03-12T08:19:26.731Z,13.50
2019-03-12T08:22:08.403Z,13.50
2019-03-12T08:25:13.124Z,13.50
2019-03-12T08:28:08.464Z,13.50
2019-03-12T08:30:54.512Z,13.50
2019-03-12T08:33:50.771Z,13.60
2019-03-12T08:36:56.644Z,13.60
2019-03-12T08:39:48.041Z,13.50
2019-03-12T08:42:54.108Z,13.60
2019-03-12T08:45:26.865Z,13.60
2019-03-12T08:48:13.337Z,13.70
2019-03-12T08:51:05.415Z,13.70
2019-03-12T08:53:48.504Z,13.70
2019-03-12T08:56:36.672Z,13.80
2019-03-12T08:59:28.936Z,13.70
2019-03-12T09:02:07.700Z,13.80
2019-03-12T09:04:59.995Z,13.80
2019-03-12T09:07:47.270Z,13.90
2019-03-12T09:10:36.754Z,13.90
2019-03-12T09:13:27.862Z,13.90
2019-03-12T09:16:17.379Z,13.90
2019-03-12T09:18:56.006Z,14.00
2019-03-12T09:21:48.434Z,14.10
2019-03-12T09:24:45.806Z,14.10
2019-03-12T09:27:38.128Z,14.10
2019-03-12T09:30:23.376Z,14.10
2019-03-12T09:33:11.048Z,14.10
2019-03-12T09:35:59.234Z,14.10
2019-03-12T09:38:57.859Z,14.20
2019-03-12T09:41:54.765Z,14.20
2019-03-12T09:44:54.016Z,14.10
2019-03-12T09:47:34.089Z,14.10
2019-03-12T09:50:23.955Z,14.10
2019-03-12T09:53:06.855Z,14.10
2019-03-12T09:56:02.271Z,14.20
2019-03-12T09:58:48.583Z,14.20
2019-03-12T10:01:31.692Z,14.20
2019-03-12T10:04:15.215Z,14.30
2019-03-12T10:07:19.884Z,14.30
2019-03-12T10:09:59.313Z,14.30
2019-03-12T10:12:53.486Z,14.40
2019-03-12T10:15:35.603Z,14.40
2019-03-12T10:18:29.695Z,14.40
2019-03-12T10:21:22.924Z,14.50
2019-03-12T10:24:12.551Z,14.50
2019-03-12T10:26:58.216Z,14.60
2019-03-12T10:29:53.639Z,14.70
2019-03-12T10:32:31.293Z,14.80
2019-03-12T10:35:10.727Z,14.80
2019-03-12T10:38:09.372Z,14.80
2019-03-12T10:40:57.541Z,14.80
2019-03-12T10:43:46.283Z,14.80
2019-03-12T10:46:34.758Z,14.70
2019-03-12T10:49:05.371Z,14.70
2019-03-12T10:51:36.042Z,14.80
2019-03-12T10:54:06.597Z,14.80
2019-03-12T10:56:38.955Z,14.90
2019-03-12T10:59:10.726Z,14.90
2019-03-12T11:01:41.268Z,14.90
2019-03-12T11:04:11.840Z,14.90
2019-03-12T11:06:42.389Z,15.00
2019-03-12T11:09:13.009Z,15.00
2019-03-12T11:11:43.535Z,15.00
2019-03-12T11:14:14.141Z,15.00
2019-03-12T11:16:46.555Z,15.00
2019-03-12T11:19:17.139Z,15.10
2019-03-12T11:21:49.005Z,15.10
2019-03-12T11:24:19.657Z,15.10
2019-03-12T11:26:50.249Z,15.20
2019-03-12T11:29:20.949Z,15.20
2019-03-12T11:31:52.627Z,15.20
2019-03-12T11:34:23.312Z,15.20
2019-03-12T11:36:53.955Z,15.20
2019-03-12T11:39:24.587Z,15.20
2019-03-12T11:41:55.105Z,15.30
2019-03-12T11:44:25.753Z,15.30
2019-03-12T11:46:58.140Z,15.30
2019-03-12T11:49:28.803Z,15.30
2019-03-12T11:51:59.780Z,15.30
2019-03-12T11:54:30.366Z,15.30
2019-03-12T11:57:00.906Z,15.40
2019-03-12T11:59:33.010Z,15.40
2019-03-12T12:02:03.827Z,15.40
2019-03-12T12:04:34.398Z,15.50
2019-03-12T12:07:05.014Z,15.50
2019-03-12T12:09:35.715Z,15.50
2019-03-12T12:12:06.675Z,15.50
2019-03-12T12:14:37.264Z,15.40
2019-03-12T12:17:07.803Z,15.40
2019-03-12T12:19:38.395Z,15.40
2019-03-12T12:22:09.001Z,15.50
2019-03-12T12:24:39.578Z,15.50
2019-03-12T12:27:10.212Z,15.50
2019-03-12T12:29:40.792Z,15.50
2019-03-12T12:32:11.394Z,15.50
2019-03-12T12:34:43.143Z,15.50
2019-03-12T12:37:14.041Z,15.50
2019-03-12T12:39:44.660Z,15.50
2019-03-12T12:42:15.298Z,15.60
2019-03-12T12:45:05.414Z,15.60
2019-03-12T12:47:37.819Z,15.60
2019-03-12T12:50:08.605Z,15.60
2019-03-12T12:52:39.247Z,15.60
2019-03-12T12:55:11.990Z,15.60
2019-03-12T12:57:42.696Z,15.60
2019-03-12T13:00:17.656Z,15.60
2019-03-12T13:02:48.365Z,15.60
2019-03-12T13:05:20.553Z,15.60
2019-03-12T13:07:53.130Z,15.60
2019-03-12T13:10:25.079Z,15.60
2019-03-12T13:12:55.640Z,15.60
2019-03-12T13:15:26.365Z,15.60
2019-03-12T13:17:59.528Z,15.60
2019-03-12T13:20:31.659Z,15.60
2019-03-12T13:23:02.431Z,15.60
2019-03-12T13:25:33.459Z,15.70
2019-03-12T13:28:05.558Z,15.70
2019-03-12T13:30:36.208Z,15.70
2019-03-12T13:33:07.888Z,15.70
2019-03-12T13:35:38.519Z,15.80
2019-03-12T13:38:10.242Z,15.80
2019-03-12T13:40:41.035Z,15.80
2019-03-12T13:43:11.789Z,15.80
2019-03-12T13:45:42.516Z,15.80
2019-03-12T13:48:15.013Z,15.90
2019-03-12T13:50:45.715Z,15.90
2019-03-12T13:53:16.412Z,15.90
2019-03-12T13:55:48.908Z,15.90
2019-03-12T13:58:19.588Z,15.90
2019-03-12T14:00:50.256Z,15.90
2019-03-12T14:03:20.832Z,15.90
2019-03-12T14:05:51.607Z,15.90
2019-03-12T14:08:22.196Z,15.90
2019-03-12T14:10:52.777Z,15.90
2019-03-12T14:13:23.797Z,15.90
2019-03-12T14:15:54.346Z,15.90
2019-03-12T14:18:25.118Z,15.90
2019-03-12T14:21:06.449Z,15.90
2019-03-12T14:23:51.744Z,15.90
2019-03-12T14:26:23.834Z,15.90
2019-03-12T14:28:54.539Z,15.90
2019-03-12T14:31:25.295Z,15.90
2019-03-12T14:33:55.931Z,15.90
2019-03-12T14:36:27.967Z,16.00
2019-03-12T14:38:58.631Z,16.00
2019-03-12T14:41:29.273Z,16.00
2019-03-12T14:43:59.910Z,16.00
2019-03-12T14:46:32.984Z,16.00
2019-03-12T14:49:06.717Z,16.00
2019-03-12T14:52:13.802Z,16.00
2019-03-12T14:54:44.355Z,16.00
2019-03-12T14:57:16.066Z,16.00
2019-03-12T14:59:46.627Z,16.00
2019-03-12T15:02:17.306Z,16.00
2019-03-12T15:04:49.463Z,16.00
2019-03-12T15:07:21.828Z,16.00
2019-03-12T15:09:52.487Z,16.00
2019-03-12T15:12:25.980Z,16.00
2019-03-12T15:14:57.747Z,16.00
2019-03-12T15:17:28.298Z,16.00
2019-03-12T15:19:58.893Z,16.00
2019-03-12T15:22:29.466Z,16.00
2019-03-12T15:25:00.162Z,16.00
2019-03-12T15:27:30.869Z,16.10
2019-03-12T15:30:01.512Z,16.10
2019-03-12T15:32:32.090Z,16.10
2019-03-12T15:35:02.693Z,16.10
2019-03-12T15:37:33.262Z,16.10
2019-03-12T15:40:03.879Z,16.10
2019-03-12T15:42:34.483Z,16.10
2019-03-12T15:45:05.467Z,16.10
2019-03-12T15:47:38.821Z,16.10
2019-03-12T15:50:09.748Z,16.10
2019-03-12T15:52:40.686Z,16.10
2019-03-12T15:55:11.657Z,16.10
2019-03-12T15:57:42.234Z,16.10
2019-03-12T16:00:12.974Z,16.10
2019-03-12T16:02:43.538Z,16.00
2019-03-12T16:05:14.112Z,16.10
2019-03-12T16:07:44.703Z,16.10
2019-03-12T16:10:15.408Z,16.00
2019-03-12T16:12:45.977Z,16.00
2019-03-12T16:15:16.707Z,16.00
2019-03-12T16:17:47.309Z,16.00
2019-03-12T16:20:18.023Z,16.00
2019-03-12T16:22:48.564Z,16.00
2019-03-12T16:25:21.080Z,16.00
2019-03-12T16:27:51.721Z,16.00
2019-03-12T16:30:22.585Z,15.90
2019-03-12T16:32:53.164Z,16.00
2019-03-12T16:35:23.770Z,15.90
2019-03-12T16:37:54.316Z,16.00
2019-03-12T16:40:26.834Z,15.90
2019-03-12T16:42:57.546Z,15.90
2019-03-12T16:45:29.251Z,15.90
2019-03-12T16:48:00.634Z,15.90
2019-03-12T16:50:31.287Z,15.90
2019-03-12T16:53:02.961Z,15.90
2019-03-12T16:55:35.029Z,15.90
2019-03-12T16:58:05.600Z,15.90
2019-03-12T17:00:36.381Z,15.90
2019-03-12T17:03:07.483Z,15.90
2019-03-12T17:05:39.261Z,15.90
2019-03-12T17:08:11.646Z,15.90
2019-03-12T17:10:55.642Z,15.80
2019-03-12T17:13:16.059Z,15.80
2019-03-12T17:15:46.759Z,15.80
2019-03-12T17:18:17.407Z,15.80
2019-03-12T17:20:48.025Z,15.80
2019-03-12T17:23:18.697Z,15.80
2019-03-12T17:25:49.277Z,15.80
2019-03-12T17:28:19.899Z,15.80
2019-03-12T17:30:50.505Z,15.80
2019-03-12T17:33:21.133Z,15.80
2019-03-12T17:35:53.525Z,15.80
2019-03-12T17:38:24.128Z,15.80
2019-03-12T17:41:05.959Z,15.80
2019-03-12T17:43:36.670Z,15.80
2019-03-12T17:46:07.389Z,15.70
2019-03-12T17:48:38.110Z,15.70
2019-03-12T17:51:08.831Z,15.70
2019-03-12T17:53:39.401Z,15.70
2019-03-12T17:56:09.954Z,15.70
2019-03-12T17:58:40.636Z,15.70
2019-03-12T18:01:11.360Z,15.70
2019-03-12T18:03:41.952Z,15.70
2019-03-12T18:06:12.598Z,15.70
2019-03-12T18:08:43.235Z,15.70
2019-03-12T18:11:13.920Z,15.70
2019-03-12T18:13:45.991Z,15.70
2019-03-12T18:16:16.684Z,15.60
2019-03-12T18:18:47.342Z,15.60
2019-03-12T18:21:18.121Z,15.60
2019-03-12T18:23:48.712Z,15.60
2019-03-12T18:26:19.487Z,15.60
2019-03-12T18:28:50.213Z,15.60
2019-03-12T18:31:20.827Z,15.60
2019-03-12T18:33:51.475Z,15.60
2019-03-12T18:36:24.174Z,15.60
2019-03-12T18:38:54.964Z,15.50
2019-03-12T18:41:25.788Z,15.50
2019-03-12T18:43:56.476Z,15.50
2019-03-12T18:46:27.515Z,15.50
2019-03-12T18:48:58.161Z,15.50
2019-03-12T18:51:28.800Z,15.50
2019-03-12T18:53:59.471Z,15.50
2019-03-12T18:56:30.051Z,15.50
2019-03-12T18:59:00.711Z,15.50
2019-03-12T19:01:31.403Z,15.50
2019-03-12T19:04:02.175Z,15.50
2019-03-12T19:06:32.750Z,15.50
2019-03-12T19:09:03.729Z,15.50
2019-03-12T19:11:37.510Z,15.50
2019-03-12T19:14:07.150Z,15.50
2019-03-12T19:16:37.880Z,15.40
2019-03-12T19:19:08.968Z,15.50
2019-03-12T19:21:41.141Z,15.40
2019-03-12T19:24:13.605Z,15.40
2019-03-12T19:26:44.170Z,15.40
2019-03-12T19:29:14.751Z,15.40
2019-03-12T19:32:07.398Z,15.40
2019-03-12T19:34:39.368Z,15.40
2019-03-12T19:37:09.964Z,15.40
2019-03-12T19:39:40.600Z,15.40
2019-03-12T19:42:12.363Z,15.40
2019-03-12T19:44:43.113Z,15.40
2019-03-12T19:47:13.780Z,15.40
2019-03-12T19:49:44.387Z,15.40
2019-03-12T19:52:14.970Z,15.40
2019-03-12T19:54:45.588Z,15.40
2019-03-12T19:57:16.160Z,15.40
2019-03-12T19:59:48.008Z,15.40
2019-03-12T20:02:19.879Z,15.40
2019-03-12T20:04:50.473Z,15.40
2019-03-12T20:07:21.051Z,15.40
2019-03-12T20:11:09.879Z,15.40
2019-03-12T20:15:00.868Z,15.30
2019-03-12T20:18:18.190Z,15.20
2019-03-12T20:21:41.260Z,15.10
2019-03-12T20:25:19.505Z,15.10
2019-03-12T20:29:03.286Z,15.00
2019-03-12T20:32:42.647Z,14.90
2019-03-12T20:36:07.812Z,15.00
2019-03-12T20:39:36.463Z,15.00
2019-03-12T20:43:05.341Z,14.90
2019-03-12T20:46:35.989Z,14.90
2019-03-12T20:50:27.048Z,14.90
2019-03-12T20:54:18.898Z,14.90
2019-03-12T20:58:21.971Z,14.90
2019-03-12T21:02:17.623Z,14.70
2019-03-12T21:05:56.207Z,14.70
2019-03-12T21:09:21.809Z,14.80
2019-03-12T21:13:10.520Z,14.80
2019-03-12T21:16:39.662Z,14.80
2019-03-12T21:20:11.027Z,14.80
2019-03-12T21:23:45.144Z,14.90
2019-03-12T21:27:49.371Z,14.90
2019-03-12T21:30:26.506Z,14.80
2019-03-12T21:32:57.203Z,14.90
2019-03-12T21:35:27.933Z,14.90
2019-03-12T21:37:58.517Z,15.00
2019-03-12T21:40:29.663Z,15.00
2019-03-12T21:43:02.015Z,15.00
2019-03-12T21:45:32.653Z,15.10
2019-03-12T21:48:03.324Z,15.10
2019-03-12T21:50:34.028Z,15.10
2019-03-12T21:53:04.915Z,15.10
2019-03-12T21:55:37.784Z,15.10
2019-03-12T21:58:08.928Z,15.10
2019-03-12T22:00:39.639Z,15.10
2019-03-12T22:03:10.206Z,15.20
2019-03-12T22:05:40.799Z,15.20
2019-03-12T22:08:12.856Z,15.20
2019-03-12T22:10:43.481Z,15.20
2019-03-12T22:13:14.020Z,15.20
2019-03-12T22:15:45.733Z,15.20
2019-03-12T22:18:16.330Z,15.20
2019-03-12T22:20:46.907Z,15.20
2019-03-12T22:23:20.813Z,15.30
2019-03-12T22:25:51.366Z,15.30
2019-03-12T22:28:23.162Z,15.30
2019-03-12T22:30:53.723Z,15.30
2019-03-12T22:33:24.331Z,15.30
2019-03-12T22:35:54.901Z,15.30
2019-03-12T22:38:25.475Z,15.30
2019-03-12T22:40:56.632Z,15.30
2019-03-12T22:43:28.942Z,15.30
2019-03-12T22:45:59.660Z,15.30
2019-03-12T22:48:31.842Z,15.40
2019-03-12T22:51:02.416Z,15.40
2019-03-12T22:53:33.041Z,15.40
2019-03-12T22:56:04.713Z,15.40
2019-03-12T22:58:35.326Z,15.40
2019-03-12T23:01:07.071Z,15.40
2019-03-12T23:03:37.651Z,15.40
2019-03-12T23:06:08.326Z,15.40
2019-03-12T23:08:39.127Z,15.40
2019-03-12T23:11:09.969Z,15.50
2019-03-12T23:13:40.704Z,15.50
2019-03-12T23:16:11.430Z,15.50
2019-03-12T23:18:42.005Z,15.50
2019-03-12T23:21:12.701Z,15.50
2019-03-12T23:23:43.270Z,15.50
2019-03-12T23:26:15.105Z,15.50
2019-03-12T23:28:48.950Z,15.50
2019-03-12T23:31:19.516Z,15.50
2019-03-12T23:33:50.541Z,15.50
2019-03-12T23:36:21.100Z,15.50
2019-03-12T23:38:51.706Z,15.60
2019-03-12T23:41:22.308Z,15.60
2019-03-12T23:43:54.117Z,15.60
2019-03-12T23:46:24.657Z,15.60
2019-03-12T23:48:56.690Z,15.60
2019-03-12T23:51:27.324Z,15.60
2019-03-12T23:53:58.125Z,15.60
2019-03-12T23:56:28.688Z,15.60
2019-03-12T23:58:59.373Z,15.60
